createdAt,value
2017-12-12T00:01:02.758Z,0.70
2017-12-12T00:03:31.306Z,0.60
2017-12-12T00:05:59.771Z,0.60
2017-12-12T00:08:28.199Z,0.50
2017-12-12T00:10:57.396Z,0.70
2017-12-12T00:13:26.582Z,0.70
2017-12-12T00:15:55.866Z,0.70
2017-12-12T00:18:25.895Z,0.70
2017-12-12T00:20:54.343Z,0.50
2017-12-12T00:23:22.818Z,0.60
2017-12-12T00:25:51.270Z,0.70
2017-12-12T00:28:19.882Z,0.73
2017-12-12T00:30:48.322Z,0.80
2017-12-12T00:33:17.672Z,0.60
2017-12-12T00:35:46.183Z,0.63
2017-12-12T00:38:14.634Z,0.50
2017-12-12T00:40:43.066Z,0.70
2017-12-12T00:43:11.919Z,0.90
2017-12-12T00:45:40.351Z,0.80
2017-12-12T00:48:09.615Z,1.47
2017-12-12T00:50:38.054Z,0.60
2017-12-12T00:53:06.502Z,0.50
2017-12-12T00:55:35.690Z,0.73
2017-12-12T00:58:04.123Z,0.70
2017-12-12T01:00:32.557Z,2.40
2017-12-12T01:03:00.984Z,0.80
2017-12-12T01:05:29.435Z,1.23
2017-12-12T01:07:58.322Z,0.87
2017-12-12T01:10:27.535Z,0.90
2017-12-12T01:12:56.139Z,0.50
2017-12-12T01:15:24.575Z,0.70
2017-12-12T01:17:53.007Z,0.70
2017-12-12T01:20:21.546Z,1.83
2017-12-12T01:22:50.747Z,0.87
2017-12-12T01:25:19.943Z,0.63
2017-12-12T01:27:49.150Z,0.80
2017-12-12T01:30:18.365Z,0.80
2017-12-12T01:32:46.791Z,0.70
2017-12-12T01:35:15.211Z,0.90
2017-12-12T01:37:43.710Z,0.80
2017-12-12T01:40:11.488Z,3.03
2017-12-12T01:42:39.252Z,0.60
2017-12-12T01:45:07.475Z,0.80
2017-12-12T01:47:35.911Z,2.60
2017-12-12T01:50:04.028Z,0.90
2017-12-12T01:52:31.872Z,0.87
2017-12-12T01:54:59.988Z,1.47
2017-12-12T01:57:29.090Z,0.93
2017-12-12T01:59:58.574Z,0.87
2017-12-12T02:02:28.013Z,1.03
2017-12-12T02:04:57.122Z,1.43
2017-12-12T02:07:26.744Z,2.07
2017-12-12T02:09:55.224Z,1.87
2017-12-12T02:12:23.694Z,1.90
2017-12-12T02:14:51.780Z,1.80
2017-12-12T02:17:20.255Z,1.03
2017-12-12T02:19:48.019Z,1.17
2017-12-12T02:22:15.830Z,0.70
2017-12-12T02:24:43.610Z,1.67
2017-12-12T02:27:11.387Z,1.10
2017-12-12T02:29:39.254Z,2.00
2017-12-12T02:32:07.124Z,0.77
2017-12-12T02:34:34.893Z,1.30
2017-12-12T02:37:02.663Z,1.53
2017-12-12T02:39:31.204Z,1.70
2017-12-12T02:41:58.971Z,0.87
2017-12-12T02:44:27.234Z,0.87
2017-12-12T02:46:55.013Z,0.50
2017-12-12T02:49:22.914Z,0.50
2017-12-12T02:51:50.803Z,0.50
2017-12-12T02:54:19.466Z,0.60
2017-12-12T02:56:47.493Z,0.77
2017-12-12T02:59:15.275Z,0.60
2017-12-12T03:01:43.051Z,0.60
2017-12-12T03:04:10.834Z,0.40
2017-12-12T03:06:39.206Z,0.40
2017-12-12T03:09:07.228Z,0.50
2017-12-12T03:11:35.276Z,0.60
2017-12-12T03:14:03.429Z,0.50
2017-12-12T03:16:31.471Z,0.50
2017-12-12T03:18:59.570Z,2.67
2017-12-12T03:21:27.601Z,0.90
2017-12-12T03:23:55.962Z,1.05
2017-12-12T03:26:23.999Z,0.50
2017-12-12T03:28:52.018Z,0.40
2017-12-12T03:31:20.042Z,0.40
2017-12-12T03:33:48.166Z,0.40
2017-12-12T03:36:16.020Z,0.40
2017-12-12T03:38:44.046Z,0.40
2017-12-12T03:41:12.459Z,0.60
2017-12-12T03:43:40.822Z,0.50
2017-12-12T03:46:09.522Z,0.60
2017-12-12T03:48:37.890Z,0.40
2017-12-12T03:51:06.230Z,0.50
2017-12-12T03:53:35.027Z,0.70
2017-12-12T03:56:02.823Z,0.40
2017-12-12T03:58:30.850Z,0.50
2017-12-12T04:00:58.945Z,0.60
2017-12-12T04:03:27.324Z,0.40
2017-12-12T04:05:55.694Z,0.50
2017-12-12T04:08:24.487Z,0.50
2017-12-12T04:10:53.621Z,1.30
2017-12-12T04:13:22.042Z,0.80
2017-12-12T04:15:50.391Z,0.50
2017-12-12T04:18:19.103Z,0.57
2017-12-12T04:20:47.124Z,0.80
2017-12-12T04:23:15.818Z,0.52
2017-12-12T04:25:44.212Z,0.40
2017-12-12T04:28:12.558Z,0.45
2017-12-12T04:30:40.975Z,0.50
2017-12-12T04:33:09.324Z,0.40
2017-12-12T04:35:37.685Z,0.40
2017-12-12T04:38:06.479Z,0.60
2017-12-12T04:40:35.310Z,0.60
2017-12-12T04:43:03.342Z,0.50
2017-12-12T04:45:32.778Z,0.65
2017-12-12T04:48:00.831Z,0.50
2017-12-12T04:50:29.215Z,1.42
2017-12-12T04:52:57.589Z,0.70
2017-12-12T04:55:26.286Z,1.50
2017-12-12T04:57:54.648Z,0.57
2017-12-12T05:00:23.788Z,0.60
2017-12-12T05:02:52.134Z,0.80
2017-12-12T05:05:20.167Z,1.10
2017-12-12T05:07:48.206Z,0.97
2017-12-12T05:10:16.240Z,0.60
2017-12-12T05:12:44.291Z,0.50
2017-12-12T05:15:13.074Z,0.83
2017-12-12T05:17:40.676Z,0.80
2017-12-12T05:20:08.822Z,0.97
2017-12-12T05:22:37.619Z,0.90
2017-12-12T05:25:06.718Z,1.30
2017-12-12T05:27:35.941Z,0.90
2017-12-12T05:30:04.275Z,0.90
2017-12-12T05:32:32.366Z,1.03
2017-12-12T05:35:01.559Z,1.40
2017-12-12T05:37:30.330Z,1.30
2017-12-12T05:39:58.454Z,0.93
2017-12-12T05:42:26.482Z,1.10
2017-12-12T05:44:55.183Z,1.30
2017-12-12T05:47:24.650Z,1.20
2017-12-12T05:49:53.028Z,2.22
2017-12-12T05:52:21.372Z,1.23
2017-12-12T05:54:49.609Z,1.33
2017-12-12T05:57:17.650Z,1.30
2017-12-12T05:59:45.678Z,1.20
2017-12-12T06:02:14.807Z,1.87
2017-12-12T06:04:42.851Z,1.70
2017-12-12T06:07:11.667Z,1.65
2017-12-12T06:09:39.708Z,2.05
2017-12-12T06:12:08.823Z,1.70
2017-12-12T06:14:37.559Z,2.10
2017-12-12T06:17:05.927Z,2.03
2017-12-12T06:19:33.943Z,1.60
2017-12-12T06:22:02.772Z,1.80
2017-12-12T06:24:30.842Z,2.05
2017-12-12T06:26:59.223Z,1.70
2017-12-12T06:29:27.286Z,1.70
2017-12-12T06:31:55.661Z,2.92
2017-12-12T06:34:24.350Z,2.00
2017-12-12T06:36:53.060Z,1.70
2017-12-12T06:39:21.479Z,1.95
2017-12-12T06:41:49.520Z,2.05
2017-12-12T06:44:17.898Z,2.00
2017-12-12T06:46:46.050Z,4.35
2017-12-12T06:49:14.125Z,1.83
2017-12-12T06:51:42.823Z,1.80
2017-12-12T06:54:10.855Z,2.08
2017-12-12T06:56:39.662Z,1.80
2017-12-12T06:59:08.898Z,1.70
2017-12-12T07:01:36.947Z,2.22
2017-12-12T07:04:05.059Z,1.98
2017-12-12T07:06:33.134Z,2.10
2017-12-12T07:09:01.158Z,1.75
2017-12-12T07:11:29.186Z,2.00
2017-12-12T07:13:58.353Z,2.22
2017-12-12T07:16:27.045Z,1.98
2017-12-12T07:18:55.411Z,2.20
2017-12-12T07:21:23.799Z,2.35
2017-12-12T07:23:52.172Z,1.98
2017-12-12T07:26:20.871Z,2.00
2017-12-12T07:28:49.598Z,1.75
2017-12-12T07:31:18.392Z,2.03
2017-12-12T07:33:47.591Z,2.03
2017-12-12T07:36:17.038Z,1.90
2017-12-12T07:38:45.743Z,1.55
2017-12-12T07:41:14.470Z,1.55
2017-12-12T07:43:43.327Z,1.73
2017-12-12T07:46:12.019Z,1.40
2017-12-12T07:48:40.724Z,1.37
2017-12-12T07:51:09.411Z,1.30
2017-12-12T07:53:38.171Z,1.50
2017-12-12T07:56:06.539Z,1.75
2017-12-12T07:58:35.226Z,1.27
2017-12-12T08:01:03.583Z,1.15
2017-12-12T08:03:32.287Z,1.40
2017-12-12T08:06:00.718Z,1.45
2017-12-12T08:08:28.743Z,1.20
2017-12-12T08:10:57.111Z,1.65
2017-12-12T08:13:25.790Z,1.83
2017-12-12T08:15:54.523Z,2.72
2017-12-12T08:18:23.211Z,1.12
2017-12-12T08:20:52.156Z,3.60
2017-12-12T08:23:20.839Z,1.27
2017-12-12T08:25:49.975Z,1.40
2017-12-12T08:28:18.677Z,1.52
2017-12-12T08:30:47.382Z,1.50
2017-12-12T08:33:16.074Z,1.10
2017-12-12T08:35:44.786Z,2.40
2017-12-12T08:38:14.244Z,2.03
2017-12-12T08:40:42.348Z,1.60
2017-12-12T08:43:11.047Z,1.05
2017-12-12T08:45:39.478Z,1.20
2017-12-12T08:48:07.592Z,1.20
2017-12-12T08:50:36.015Z,1.60
2017-12-12T08:53:04.527Z,1.30
2017-12-12T08:55:33.364Z,4.53
2017-12-12T08:58:02.867Z,0.80
2017-12-12T09:00:31.304Z,1.57
2017-12-12T09:03:00.511Z,2.80
2017-12-12T09:05:29.702Z,1.80
2017-12-12T09:07:59.059Z,1.50
2017-12-12T09:10:27.484Z,1.30
2017-12-12T09:12:56.351Z,1.30
2017-12-12T09:15:24.182Z,1.20
2017-12-12T09:17:52.279Z,1.87
2017-12-12T09:20:20.754Z,2.10
2017-12-12T09:22:49.203Z,1.40
2017-12-12T09:25:17.623Z,1.33
2017-12-12T09:27:46.079Z,1.10
2017-12-12T09:30:14.427Z,2.47
2017-12-12T09:32:43.635Z,4.83
2017-12-12T09:35:12.486Z,1.73
2017-12-12T09:37:41.247Z,1.25
2017-12-12T09:40:10.034Z,1.12
2017-12-12T09:42:39.520Z,1.40
2017-12-12T09:45:07.932Z,1.50
2017-12-12T09:47:36.413Z,1.30
2017-12-12T09:50:04.495Z,1.67
2017-12-12T09:52:33.159Z,1.20
2017-12-12T09:55:01.592Z,1.40
2017-12-12T09:57:30.049Z,1.20
2017-12-12T09:59:58.557Z,1.63
2017-12-12T10:02:27.779Z,1.33
2017-12-12T10:04:57.004Z,1.43
2017-12-12T10:07:25.130Z,2.20
2017-12-12T10:09:53.759Z,2.20
2017-12-12T10:12:22.167Z,1.80
2017-12-12T10:14:50.611Z,3.63
2017-12-12T10:17:18.367Z,2.00
2017-12-12T10:19:47.570Z,1.93
2017-12-12T10:22:16.277Z,1.45
2017-12-12T10:24:45.758Z,2.92
2017-12-12T10:27:14.456Z,4.75
2017-12-12T10:29:43.190Z,1.62
2017-12-12T10:32:12.011Z,1.80
2017-12-12T10:34:41.444Z,1.87
2017-12-12T10:37:09.222Z,1.70
2017-12-12T10:39:38.048Z,1.60
2017-12-12T10:42:06.099Z,4.03
2017-12-12T10:44:34.900Z,1.30
2017-12-12T10:47:02.951Z,1.67
2017-12-12T10:49:31.778Z,1.85
2017-12-12T10:52:00.242Z,2.58
2017-12-12T10:54:28.625Z,1.67
2017-12-12T10:56:57.408Z,1.60
2017-12-12T10:59:25.836Z,3.00
2017-12-12T11:01:54.739Z,3.50
2017-12-12T11:04:23.942Z,2.93
2017-12-12T11:06:52.658Z,1.30
2017-12-12T11:09:22.126Z,1.40
2017-12-12T11:11:51.320Z,2.10
2017-12-12T11:14:20.539Z,1.47
2017-12-12T11:16:49.287Z,2.03
2017-12-12T11:19:17.991Z,1.55
2017-12-12T11:21:47.198Z,1.80
2017-12-12T11:24:16.367Z,1.80
2017-12-12T11:26:44.177Z,1.80
2017-12-12T11:29:13.079Z,2.10
2017-12-12T11:31:41.303Z,1.73
2017-12-12T11:34:09.407Z,1.97
2017-12-12T11:36:37.963Z,3.87
2017-12-12T11:39:06.379Z,2.20
2017-12-12T11:41:35.567Z,1.90
2017-12-12T11:44:04.778Z,1.70
2017-12-12T11:46:33.999Z,2.33
2017-12-12T11:49:02.423Z,2.17
2017-12-12T11:51:30.867Z,4.00
2017-12-12T11:53:58.683Z,2.33
2017-12-12T11:56:26.463Z,2.83
2017-12-12T11:58:55.018Z,2.40
2017-12-12T12:01:23.497Z,2.10
2017-12-12T12:03:51.956Z,2.43
2017-12-12T12:06:19.737Z,1.80
2017-12-12T12:08:47.488Z,4.80
2017-12-12T12:11:15.583Z,2.10
2017-12-12T12:13:43.695Z,2.47
2017-12-12T12:16:12.208Z,2.80
2017-12-12T12:18:39.950Z,3.70
2017-12-12T12:21:08.819Z,1.80
2017-12-12T12:23:36.585Z,2.27
2017-12-12T12:26:05.472Z,1.57
2017-12-12T12:28:33.895Z,1.83
2017-12-12T12:31:01.682Z,2.13
2017-12-12T12:33:29.779Z,1.77
2017-12-12T12:35:58.228Z,2.00
2017-12-12T12:38:26.663Z,1.50
2017-12-12T12:40:54.560Z,2.10
2017-12-12T12:43:23.115Z,2.63
2017-12-12T12:45:51.527Z,2.17
2017-12-12T12:48:19.307Z,2.50
2017-12-12T12:50:47.723Z,1.93
2017-12-12T12:53:15.531Z,1.93
2017-12-12T12:55:44.402Z,3.53
2017-12-12T12:58:12.511Z,2.03
2017-12-12T13:00:40.586Z,1.50
2017-12-12T13:03:09.011Z,1.47
2017-12-12T13:05:37.450Z,1.90
2017-12-12T13:08:05.879Z,1.50
2017-12-12T13:10:34.446Z,1.67
2017-12-12T13:13:02.878Z,1.70
2017-12-12T13:15:32.085Z,3.93
2017-12-12T13:18:01.297Z,3.07
2017-12-12T13:20:29.753Z,1.60
2017-12-12T13:22:58.483Z,2.20
2017-12-12T13:25:26.942Z,1.50
2017-12-12T13:27:55.403Z,1.40
2017-12-12T13:30:24.321Z,1.67
2017-12-12T13:32:52.760Z,2.30
2017-12-12T13:35:20.827Z,3.57
2017-12-12T13:37:48.679Z,1.70
2017-12-12T13:40:17.090Z,1.20
2017-12-12T13:42:45.556Z,8.30
2017-12-12T13:45:13.919Z,2.33
2017-12-12T13:47:42.331Z,1.70
2017-12-12T13:50:10.786Z,1.63
2017-12-12T13:52:40.744Z,1.57
2017-12-12T13:55:09.960Z,2.00
2017-12-12T13:57:38.363Z,1.43
2017-12-12T14:00:06.959Z,3.77
2017-12-12T14:02:35.460Z,2.67
2017-12-12T14:05:03.910Z,1.40
2017-12-12T14:07:32.326Z,2.20
2017-12-12T14:10:00.750Z,3.00
2017-12-12T14:12:29.282Z,1.30
2017-12-12T14:14:57.710Z,1.40
2017-12-12T14:17:26.904Z,1.87
2017-12-12T14:19:56.119Z,5.60
2017-12-12T14:22:24.578Z,1.40
2017-12-12T14:24:53.779Z,2.80
2017-12-12T14:27:22.970Z,1.90
2017-12-12T14:29:51.401Z,1.90
2017-12-12T14:32:19.838Z,2.43
2017-12-12T14:34:49.131Z,1.87
2017-12-12T14:37:17.840Z,1.20
2017-12-12T14:39:46.534Z,1.42
2017-12-12T14:42:15.249Z,2.15
2017-12-12T14:44:43.674Z,1.33
2017-12-12T14:47:12.893Z,1.43
2017-12-12T14:49:42.087Z,1.47
2017-12-12T14:52:11.298Z,1.47
2017-12-12T14:54:40.484Z,1.90
2017-12-12T14:57:09.698Z,1.87
2017-12-12T14:59:38.974Z,1.43
2017-12-12T15:02:08.204Z,1.10
2017-12-12T15:04:36.647Z,1.90
2017-12-12T15:07:06.666Z,1.03
2017-12-12T15:09:35.101Z,2.10
2017-12-12T15:12:03.663Z,1.30
2017-12-12T15:14:32.211Z,1.43
2017-12-12T15:17:00.903Z,1.55
2017-12-12T15:19:29.369Z,2.90
2017-12-12T15:21:58.073Z,2.05
2017-12-12T15:24:26.791Z,1.30
2017-12-12T15:26:56.131Z,1.30
2017-12-12T15:29:24.580Z,1.50
2017-12-12T15:31:53.271Z,1.62
2017-12-12T15:34:21.652Z,3.40
2017-12-12T15:36:50.364Z,1.02
2017-12-12T15:39:19.852Z,5.07
2017-12-12T15:41:49.466Z,1.27
2017-12-12T15:44:19.002Z,1.98
2017-12-12T15:46:47.875Z,2.40
2017-12-12T15:49:17.363Z,3.50
2017-12-12T15:51:46.147Z,5.68
2017-12-12T15:54:15.622Z,1.73
2017-12-12T15:56:44.144Z,3.33
2017-12-12T15:59:12.844Z,1.30
2017-12-12T16:01:41.320Z,1.80
2017-12-12T16:04:10.774Z,1.42
2017-12-12T16:06:39.149Z,2.95
2017-12-12T16:09:07.997Z,2.75
2017-12-12T16:11:37.483Z,1.10
2017-12-12T16:14:06.219Z,0.98
2017-12-12T16:16:34.990Z,1.60
2017-12-12T16:19:04.444Z,1.20
2017-12-12T16:21:33.210Z,2.65
2017-12-12T16:24:01.930Z,1.25
2017-12-12T16:26:30.695Z,3.25
2017-12-12T16:28:59.583Z,1.27
2017-12-12T16:31:28.366Z,1.35
2017-12-12T16:33:56.781Z,1.80
2017-12-12T16:36:24.852Z,1.48
2017-12-12T16:38:53.219Z,4.05
2017-12-12T16:41:22.068Z,1.55
2017-12-12T16:43:51.200Z,3.00
2017-12-12T16:46:19.927Z,2.80
2017-12-12T16:48:49.391Z,4.07
2017-12-12T16:51:18.132Z,2.85
2017-12-12T16:53:46.547Z,7.30
2017-12-12T16:56:16.227Z,3.47
2017-12-12T16:58:44.968Z,7.70
2017-12-12T17:01:13.679Z,6.78
2017-12-12T17:03:42.429Z,2.65
2017-12-12T17:06:11.192Z,1.73
2017-12-12T17:08:40.755Z,1.70
2017-12-12T17:11:09.463Z,2.33
2017-12-12T17:13:39.238Z,1.60
2017-12-12T17:16:07.975Z,3.92
2017-12-12T17:18:36.717Z,6.12
2017-12-12T17:21:05.457Z,3.28
2017-12-12T17:23:34.911Z,5.15
2017-12-12T17:26:03.690Z,1.60
2017-12-12T17:28:33.238Z,2.05
2017-12-12T17:31:02.735Z,2.78
2017-12-12T17:33:31.472Z,3.55
2017-12-12T17:36:00.974Z,4.22
2017-12-12T17:38:30.458Z,3.95
2017-12-12T17:40:59.187Z,2.05
2017-12-12T17:43:27.892Z,3.67
2017-12-12T17:45:56.599Z,1.75
2017-12-12T17:48:25.338Z,2.28
2017-12-12T17:50:54.033Z,1.92
2017-12-12T17:53:30.588Z,1.80
2017-12-12T17:56:00.084Z,1.50
2017-12-12T17:58:29.575Z,1.75
2017-12-12T18:00:58.295Z,2.00
2017-12-12T18:03:27.810Z,3.10
2017-12-12T18:05:56.591Z,2.78
2017-12-12T18:08:25.434Z,2.25
2017-12-12T18:10:54.194Z,3.33
2017-12-12T18:13:22.958Z,2.58
2017-12-12T18:15:51.749Z,1.83
2017-12-12T18:18:20.506Z,2.72
2017-12-12T18:20:49.205Z,1.45
2017-12-12T18:23:17.904Z,1.83
2017-12-12T18:25:47.387Z,2.20
2017-12-12T18:28:16.906Z,2.30
2017-12-12T18:30:46.493Z,3.20
2017-12-12T18:33:15.296Z,5.85
2017-12-12T18:35:44.004Z,2.40
2017-12-12T18:38:13.617Z,3.20
2017-12-12T18:40:43.108Z,2.90
2017-12-12T18:43:12.577Z,3.12
2017-12-12T18:45:41.310Z,3.67
2017-12-12T18:48:10.053Z,3.35
2017-12-12T18:50:38.753Z,2.80
2017-12-12T18:53:07.643Z,2.30
2017-12-12T18:55:36.343Z,3.42
2017-12-12T18:58:05.088Z,3.12
2017-12-12T19:00:33.131Z,3.92
2017-12-12T19:03:02.624Z,3.75
2017-12-12T19:05:31.332Z,3.35
2017-12-12T19:08:00.068Z,4.18
2017-12-12T19:10:28.768Z,6.70
2017-12-12T19:12:57.899Z,3.15
2017-12-12T19:15:27.381Z,4.00
2017-12-12T19:17:56.139Z,5.47
2017-12-12T19:20:24.863Z,3.05
2017-12-12T19:22:53.599Z,4.72
2017-12-12T19:25:22.003Z,2.85
2017-12-12T19:27:50.738Z,4.57
2017-12-12T19:30:20.235Z,3.83
2017-12-12T19:32:49.705Z,3.03
2017-12-12T19:35:18.430Z,5.50
2017-12-12T19:37:47.908Z,3.40
2017-12-12T19:40:16.635Z,5.75
2017-12-12T19:42:46.232Z,5.12
2017-12-12T19:45:15.064Z,3.60
2017-12-12T19:47:43.877Z,8.45
2017-12-12T19:50:12.607Z,5.55
2017-12-12T19:52:42.088Z,7.28
2017-12-12T19:55:10.865Z,7.40
2017-12-12T19:57:39.577Z,5.35
2017-12-12T20:00:07.696Z,6.18
2017-12-12T20:02:36.444Z,6.25
2017-12-12T20:05:05.926Z,5.65
2017-12-12T20:07:34.649Z,5.45
2017-12-12T20:10:04.150Z,5.93
2017-12-12T20:12:33.632Z,6.03
2017-12-12T20:15:02.517Z,4.60
2017-12-12T20:17:30.930Z,6.05
2017-12-12T20:20:00.414Z,6.15
2017-12-12T20:22:29.162Z,5.18
2017-12-12T20:24:57.879Z,6.12
2017-12-12T20:27:26.628Z,5.68
2017-12-12T20:29:55.017Z,6.05
2017-12-12T20:32:23.847Z,5.22
2017-12-12T20:34:52.730Z,7.78
2017-12-12T20:37:22.367Z,6.65
2017-12-12T20:39:51.118Z,8.50
2017-12-12T20:42:19.891Z,6.47
2017-12-12T20:44:48.620Z,6.00
2017-12-12T20:47:17.346Z,6.85
2017-12-12T20:49:46.276Z,6.55
2017-12-12T20:52:14.995Z,8.23
2017-12-12T20:54:44.631Z,7.30
2017-12-12T20:57:14.165Z,5.65
2017-12-12T20:59:43.136Z,6.60
2017-12-12T21:02:12.595Z,7.05
2017-12-12T21:04:41.346Z,6.57
2017-12-12T21:07:15.622Z,6.97
2017-12-12T21:09:43.999Z,6.75
2017-12-12T21:12:12.746Z,8.88
2017-12-12T21:14:41.491Z,8.80
2017-12-12T21:17:11.786Z,7.20
2017-12-12T21:19:40.584Z,11.00
2017-12-12T21:22:09.407Z,7.25
2017-12-12T21:24:38.900Z,6.85
2017-12-12T21:27:08.512Z,6.45
2017-12-12T21:29:38.034Z,7.95
2017-12-12T21:32:07.547Z,7.20
2017-12-12T21:34:37.017Z,7.65
2017-12-12T21:37:06.491Z,7.28
2017-12-12T21:39:35.203Z,8.38
2017-12-12T21:42:03.939Z,6.93
2017-12-12T21:44:32.651Z,6.25
2017-12-12T21:47:01.407Z,7.18
2017-12-12T21:49:30.903Z,9.55
2017-12-12T21:52:00.459Z,11.27
2017-12-12T21:54:28.860Z,9.90
2017-12-12T21:56:57.570Z,10.43
2017-12-12T21:59:26.280Z,9.45
2017-12-12T22:01:55.005Z,6.28
2017-12-12T22:04:23.386Z,12.57
2017-12-12T22:06:52.114Z,8.82
2017-12-12T22:09:21.592Z,6.37
2017-12-12T22:11:50.339Z,6.55
2017-12-12T22:14:18.705Z,9.25
2017-12-12T22:16:48.271Z,6.93
2017-12-12T22:19:16.984Z,8.07
2017-12-12T22:21:46.477Z,6.85
2017-12-12T22:24:15.218Z,7.85
2017-12-12T22:26:43.939Z,6.60
2017-12-12T22:29:12.707Z,7.32
2017-12-12T22:31:41.404Z,5.40
2017-12-12T22:34:10.351Z,7.32
2017-12-12T22:36:39.858Z,6.50
2017-12-12T22:39:09.468Z,7.40
2017-12-12T22:41:38.189Z,5.60
2017-12-12T22:44:06.994Z,4.50
2017-12-12T22:46:35.723Z,8.48
2017-12-12T22:49:05.302Z,6.85
2017-12-12T22:51:34.015Z,5.03
2017-12-12T22:54:03.499Z,5.10
2017-12-12T22:56:32.234Z,7.55
2017-12-12T22:59:00.951Z,6.62
2017-12-12T23:01:29.666Z,10.10
2017-12-12T23:03:58.378Z,7.35
2017-12-12T23:06:27.875Z,10.43
2017-12-12T23:08:56.585Z,8.13
2017-12-12T23:11:26.094Z,8.80
2017-12-12T23:13:54.838Z,7.82
2017-12-12T23:16:23.576Z,5.43
2017-12-12T23:18:53.242Z,8.35
2017-12-12T23:21:21.987Z,5.75
2017-12-12T23:23:50.800Z,8.70
2017-12-12T23:26:19.539Z,7.03
2017-12-12T23:28:49.018Z,5.45
2017-12-12T23:31:17.419Z,4.80
2017-12-12T23:33:46.320Z,5.22
2017-12-12T23:36:15.808Z,7.43
2017-12-12T23:38:44.525Z,6.12
2017-12-12T23:41:13.232Z,7.40
2017-12-12T23:43:41.938Z,6.50
2017-12-12T23:46:10.675Z,5.32
2017-12-12T23:48:40.163Z,5.37
2017-12-12T23:51:09.670Z,6.85
2017-12-12T23:53:38.477Z,6.65
2017-12-12T23:56:07.955Z,5.87
2017-12-12T23:58:36.677Z,7.12
